Terminal Aerodrome Forecast
Issued by NWS Tallahassee, FL

Current Version | Previous Version | Text Only | Print | Product List | Glossary On
Versions: 1 2 3 4 5 6 7 8 9 10 11 12 13 14 15 16 17 18
000
FTUS42 KTAE 032320
TAFTLH
TAF
KTLH 032320Z 0400/0424 22003KT P6SM SCT040
      TEMPO 0400/0401 19010KT BKN040
     FM041500 23006KT P6SM SCT040
     FM042100 19010KT P6SM TS BKN040CB=

USA.gov is the U.S. government's official web portal to all federal, state and local government web resources and services.